Time;durP1;ratioP1;P1;durP2;ratioP2;P2;SDS_P1;SDS_P2;PMS_P1;PMS_P2;Temp;Humidity;BMP_temperature;BMP_pressure;BME280_temperature;BME280_humidity;BME280_pressure;Samples;Min_cycle;Max_cycle;Signal;HPM_P1;HPM_P2
2023/08/28 00:00:27;;;;;;;18.38;11.38;;;11.90;99.90;;;;;;5065060;28;20785;-85
2023/08/28 00:02:54;;;;;;;13.75;9.55;;;11.90;99.90;;;;;;5083343;28;20442;-85
2023/08/28 00:05:19;;;;;;;15.57;10.93;;;11.90;99.90;;;;;;5068393;28;20028;-85
2023/08/28 00:07:45;;;;;;;19.15;10.65;;;11.80;99.90;;;;;;5065165;28;20024;-85
2023/08/28 00:10:11;;;;;;;14.80;9.65;;;11.80;99.90;;;;;;5087482;28;20050;-85
2023/08/28 00:12:40;;;;;;;15.00;9.57;;;11.70;99.90;;;;;;5065982;28;20399;-85
2023/08/28 00:15:07;;;;;;;12.88;9.10;;;11.60;99.90;;;;;;5064351;28;20024;-85
2023/08/28 00:17:33;;;;;;;15.02;8.93;;;11.60;99.90;;;;;;5067010;28;20024;-85
2023/08/28 00:19:59;;;;;;;16.95;8.55;;;11.60;99.90;;;;;;5081529;28;20506;-84
2023/08/28 00:22:24;;;;;;;14.43;8.63;;;11.60;99.90;;;;;;5066987;28;20035;-85
2023/08/28 00:24:50;;;;;;;15.57;6.82;;;11.60;99.90;;;;;;5081391;28;20031;-86
2023/08/28 00:27:15;;;;;;;7.60;6.30;;;11.60;99.90;;;;;;5086083;28;20030;-86
2023/08/28 00:29:41;;;;;;;10.10;6.68;;;11.50;99.90;;;;;;5082357;28;20116;-85
2023/08/28 00:32:07;;;;;;;13.07;6.70;;;11.50;99.90;;;;;;5063332;28;20491;-86
2023/08/28 00:34:33;;;;;;;13.43;6.70;;;11.50;99.90;;;;;;5067232;28;20494;-85
2023/08/28 00:36:59;;;;;;;9.85;5.57;;;11.50;99.90;;;;;;5064624;28;20031;-85
2023/08/28 00:39:24;;;;;;;12.15;5.82;;;11.50;99.90;;;;;;5069414;28;20787;-85
2023/08/28 00:41:50;;;;;;;8.30;5.30;;;11.50;99.90;;;;;;5082470;28;20024;-86
2023/08/28 00:44:16;;;;;;;11.45;4.88;;;11.40;99.90;;;;;;5063764;28;20024;-85
2023/08/28 00:46:41;;;;;;;11.23;5.35;;;11.40;99.90;;;;;;5066949;28;20027;-85
2023/08/28 00:49:08;;;;;;;11.13;6.05;;;11.30;99.90;;;;;;5066132;28;20065;-85
2023/08/28 00:51:34;;;;;;;11.38;5.13;;;11.20;99.90;;;;;;5064965;28;20047;-85
2023/08/28 00:54:01;;;;;;;11.20;6.47;;;11.10;99.90;;;;;;5079187;28;20036;-84
2023/08/28 00:56:27;;;;;;;9.32;5.25;;;11.10;99.90;;;;;;5081291;28;20533;-85
2023/08/28 00:58:53;;;;;;;9.10;5.63;;;11.00;99.90;;;;;;5063034;28;20145;-85
2023/08/28 01:01:19;;;;;;;15.35;5.72;;;11.00;99.90;;;;;;5066511;28;20477;-85
2023/08/28 01:03:45;;;;;;;9.27;5.57;;;10.90;99.90;;;;;;5063636;28;20023;-85
2023/08/28 01:06:21;;;;;;;10.38;5.47;;;10.90;99.90;;;;;;5068774;28;20073;-85
2023/08/28 01:09:13;;;;;;;8.10;5.05;;;10.90;99.90;;;;;;5082260;28;20028;-85
2023/08/28 01:11:56;;;;;;;10.57;5.45;;;10.90;99.90;;;;;;5063608;28;20036;-85
2023/08/28 01:14:25;;;;;;;10.90;6.28;;;10.90;99.90;;;;;;5068379;28;20027;-85
2023/08/28 01:16:56;;;;;;;8.85;6.88;;;10.90;99.90;;;;;;5064916;28;20023;-85
2023/08/28 01:19:43;;;;;;;11.38;7.25;;;10.90;99.90;;;;;;5062967;28;20040;-85
2023/08/28 01:22:22;;;;;;;9.60;5.90;;;10.90;99.90;;;;;;5066219;28;20024;-85
2023/08/28 01:24:53;;;;;;;15.65;5.95;;;10.90;99.90;;;;;;5081008;28;20020;-85
2023/08/28 01:27:22;;;;;;;;;;;10.90;99.90;;;;;;5069756;28;20066;-85
2023/08/28 01:30:08;;;;;;;10.05;6.07;;;10.90;99.90;;;;;;5082006;28;19908;-85
2023/08/28 01:32:34;;;;;;;8.38;4.95;;;10.80;99.90;;;;;;5080350;28;20030;-85
2023/08/28 01:35:02;;;;;;;12.43;5.90;;;10.80;99.90;;;;;;5066304;28;20031;-85
2023/08/28 01:37:34;;;;;;;6.70;4.70;;;10.80;99.90;;;;;;5078586;28;20028;-85
2023/08/28 01:40:05;;;;;;;6.45;5.32;;;10.90;99.90;;;;;;5067433;28;20028;-85
2023/08/28 01:42:33;;;;;;;11.25;5.13;;;10.90;99.90;;;;;;5066132;28;20051;-85
2023/08/28 01:45:00;;;;;;;7.75;5.18;;;10.90;99.90;;;;;;5060926;28;20490;-85
2023/08/28 01:47:27;;;;;;;11.27;5.00;;;10.80;99.90;;;;;;5069082;28;20035;-85
2023/08/28 01:49:55;;;;;;;10.15;5.38;;;10.80;99.90;;;;;;5063346;28;20055;-85
2023/08/28 01:52:21;;;;;;;6.95;5.20;;;10.80;99.90;;;;;;5079249;28;20066;-85
2023/08/28 01:54:47;;;;;;;8.00;4.95;;;10.80;99.90;;;;;;5062180;28;20441;-85
2023/08/28 01:57:13;;;;;;;10.18;5.20;;;10.80;99.90;;;;;;5075493;28;20032;-85
2023/08/28 01:59:39;;;;;;;10.18;5.70;;;10.80;99.90;;;;;;5080610;28;20039;-85
2023/08/28 02:02:04;;;;;;;13.00;5.63;;;10.80;99.90;;;;;;5082888;28;20024;-85
2023/08/28 02:04:30;;;;;;;12.10;5.75;;;10.90;99.90;;;;;;5063982;28;20017;-85
2023/08/28 02:06:56;;;;;;;10.35;5.40;;;10.80;99.90;;;;;;5062139;28;20024;-85
2023/08/28 02:09:21;;;;;;;8.15;5.68;;;10.90;99.90;;;;;;5066151;28;20391;-85
2023/08/28 02:11:49;;;;;;;10.05;5.85;;;10.90;99.90;;;;;;5062818;28;20372;-85
2023/08/28 02:14:15;;;;;;;9.15;6.07;;;10.90;99.90;;;;;;5068042;28;20059;-85
2023/08/28 02:16:40;;;;;;;7.97;5.97;;;11.00;99.90;;;;;;5065163;28;20344;-85
2023/08/28 02:19:07;;;;;;;11.20;5.43;;;11.00;99.90;;;;;;5077898;28;20028;-84
2023/08/28 02:21:34;;;;;;;11.45;5.50;;;11.00;99.90;;;;;;5067046;28;20746;-85
2023/08/28 02:24:00;;;;;;;11.13;4.90;;;11.00;99.90;;;;;;5078931;28;20035;-84
2023/08/28 02:26:25;;;;;;;8.05;4.97;;;11.00;99.90;;;;;;5088942;28;20028;-85
2023/08/28 02:28:51;;;;;;;8.45;5.45;;;11.10;99.90;;;;;;5067503;28;20126;-85
2023/08/28 02:31:17;;;;;;;7.07;5.22;;;11.10;99.90;;;;;;5067938;28;20043;-85
2023/08/28 02:33:44;;;;;;;12.82;5.88;;;11.00;99.90;;;;;;5068489;28;20692;-85
2023/08/28 02:36:10;;;;;;;13.00;5.35;;;11.10;99.90;;;;;;5086763;28;20016;-85
2023/08/28 02:38:36;;;;;;;9.85;5.43;;;11.10;99.90;;;;;;5067676;28;20020;-85
2023/08/28 02:41:07;;;;;;;8.85;5.00;;;11.10;99.90;;;;;;5064885;28;20028;-85
2023/08/28 02:43:33;;;;;;;8.13;5.32;;;11.10;99.90;;;;;;5085908;28;20024;-85
2023/08/28 02:46:00;;;;;;;7.97;5.15;;;11.10;99.90;;;;;;5064950;28;20044;-84
2023/08/28 02:48:27;;;;;;;6.63;5.03;;;11.10;99.90;;;;;;5087842;28;20109;-85
2023/08/28 02:50:53;;;;;;;8.70;5.25;;;11.00;99.90;;;;;;5083912;28;20024;-85
2023/08/28 02:53:19;;;;;;;9.38;4.63;;;11.00;99.90;;;;;;5078643;28;20024;-87
2023/08/28 02:56:13;;;;;;;10.93;6.30;;;11.00;99.90;;;;;;5062162;28;20027;-85
2023/08/28 02:58:39;;;;;;;12.07;5.00;;;11.00;99.90;;;;;;5098738;28;20035;-85
2023/08/28 03:01:05;;;;;;;10.25;5.03;;;11.00;99.90;;;;;;5070000;28;20023;-85
2023/08/28 03:03:33;;;;;;;8.43;5.72;;;11.10;99.90;;;;;;5070695;28;20028;-86
2023/08/28 03:06:01;;;;;;;10.35;4.90;;;11.10;99.90;;;;;;5064048;28;20024;-86
2023/08/28 03:08:28;;;;;;;9.25;4.50;;;11.10;99.90;;;;;;5072829;28;20020;-86
2023/08/28 03:10:54;;;;;;;6.80;4.18;;;11.10;99.90;;;;;;5065712;28;20395;-85
2023/08/28 03:13:20;;;;;;;10.52;4.30;;;11.10;99.90;;;;;;5066453;28;20028;-85
2023/08/28 03:15:46;;;;;;;7.13;4.00;;;11.00;99.90;;;;;;5066535;28;20086;-85
2023/08/28 03:18:11;;;;;;;9.82;4.13;;;11.00;99.90;;;;;;5068848;28;20024;-86
2023/08/28 03:20:37;;;;;;;5.20;4.05;;;11.00;99.90;;;;;;5066458;28;20031;-85
2023/08/28 03:23:03;;;;;;;8.38;4.55;;;11.10;99.90;;;;;;5064352;28;20020;-85
2023/08/28 03:25:30;;;;;;;5.95;4.10;;;11.00;99.90;;;;;;5068635;28;20028;-85
2023/08/28 03:27:55;;;;;;;5.10;4.15;;;11.00;99.90;;;;;;5064983;28;20178;-85
2023/08/28 03:30:21;;;;;;;6.05;4.13;;;11.00;99.90;;;;;;5069174;28;20027;-85
2023/08/28 03:32:47;;;;;;;5.20;3.80;;;10.90;99.90;;;;;;5066877;28;20036;-85
2023/08/28 03:35:13;;;;;;;4.32;3.80;;;10.80;99.90;;;;;;5061658;28;20059;-86
2023/08/28 03:37:38;;;;;;;7.55;4.30;;;10.80;99.90;;;;;;5085568;28;20040;-85
2023/08/28 03:40:05;;;;;;;8.00;4.53;;;10.70;99.90;;;;;;5079940;28;20023;-85
2023/08/28 03:42:30;;;;;;;10.35;4.60;;;10.70;99.90;;;;;;5088609;28;20054;-85
2023/08/28 03:44:56;;;;;;;6.55;4.60;;;10.70;99.90;;;;;;5065191;28;20024;-85
2023/08/28 03:47:22;;;;;;;6.55;4.80;;;10.60;99.90;;;;;;5083537;28;20022;-85
2023/08/28 03:49:47;;;;;;;5.15;4.38;;;10.60;99.90;;;;;;5066615;28;20031;-85
2023/08/28 03:52:13;;;;;;;14.27;4.53;;;10.60;99.90;;;;;;5103918;28;20382;-85
2023/08/28 03:54:39;;;;;;;14.63;6.03;;;10.60;99.90;;;;;;5082986;28;20036;-85
2023/08/28 03:57:06;;;;;;;8.07;5.10;;;10.60;99.90;;;;;;5070630;28;20128;-85
2023/08/28 03:59:31;;;;;;;5.57;4.68;;;10.60;99.90;;;;;;5067411;28;20032;-85
2023/08/28 04:01:57;;;;;;;12.43;4.55;;;10.60;99.90;;;;;;5064600;28;20028;-85
2023/08/28 04:04:23;;;;;;;6.78;4.70;;;10.70;99.90;;;;;;5085673;28;20055;-85
2023/08/28 04:06:49;;;;;;;11.73;4.78;;;10.70;99.90;;;;;;5084073;28;20141;-85
2023/08/28 04:09:14;;;;;;;7.55;4.72;;;10.70;99.90;;;;;;5079026;28;20489;-85
2023/08/28 04:11:41;;;;;;;10.20;4.85;;;10.70;99.90;;;;;;5069142;28;20028;-85
2023/08/28 04:14:07;;;;;;;8.80;5.20;;;10.70;99.90;;;;;;5078280;28;20028;-85
2023/08/28 04:16:36;;;;;;;8.70;4.75;;;10.70;99.90;;;;;;5071659;28;20031;-85
2023/08/28 04:19:03;;;;;;;9.75;5.28;;;10.70;99.90;;;;;;5063480;28;20063;-85
2023/08/28 04:21:29;;;;;;;7.82;4.63;;;10.70;99.90;;;;;;5081178;28;20786;-85
2023/08/28 04:23:56;;;;;;;6.95;4.90;;;10.60;99.90;;;;;;5064972;28;20020;-85
2023/08/28 04:26:22;;;;;;;9.55;4.65;;;10.60;99.90;;;;;;5066852;28;20028;-85
2023/08/28 04:28:48;;;;;;;9.20;4.85;;;10.60;99.90;;;;;;5065254;28;20097;-85
2023/08/28 04:31:14;;;;;;;12.57;4.97;;;10.70;99.90;;;;;;5084948;28;20067;-85
2023/08/28 04:33:39;;;;;;;6.72;4.75;;;10.70;99.90;;;;;;5065768;28;20152;-85
2023/08/28 04:36:05;;;;;;;8.27;5.10;;;10.70;99.90;;;;;;5058977;28;20035;-87
2023/08/28 04:38:31;;;;;;;9.25;4.72;;;10.70;99.90;;;;;;5067780;28;20089;-88
2023/08/28 04:40:56;;;;;;;17.13;5.30;;;10.80;99.90;;;;;;5065192;28;20028;-87
2023/08/28 04:43:22;;;;;;;7.43;4.85;;;10.80;99.90;;;;;;5085314;28;20035;-87
2023/08/28 04:45:52;;;;;;;7.60;4.93;;;10.80;99.90;;;;;;5067369;28;20024;-88
2023/08/28 04:48:18;;;;;;;6.50;4.53;;;10.90;99.90;;;;;;5061042;28;20020;-87
2023/08/28 04:50:44;;;;;;;11.55;4.93;;;10.80;99.90;;;;;;5068875;28;20508;-87
2023/08/28 04:53:09;;;;;;;10.40;5.28;;;10.90;99.90;;;;;;5063238;28;20231;-87
2023/08/28 04:55:38;;;;;;;5.68;4.25;;;10.90;99.90;;;;;;5063719;28;20035;-88
2023/08/28 04:58:05;;;;;;;8.32;4.85;;;11.00;99.90;;;;;;5065137;28;20028;-87
2023/08/28 05:00:32;;;;;;;12.02;4.15;;;11.10;99.90;;;;;;5065092;28;20036;-87
2023/08/28 05:02:58;;;;;;;6.50;3.65;;;11.20;99.90;;;;;;5065911;28;20490;-87
2023/08/28 05:05:23;;;;;;;13.93;3.67;;;11.30;99.90;;;;;;5081712;28;20028;-88
2023/08/28 05:07:49;;;;;;;7.68;3.50;;;11.40;99.90;;;;;;5081952;28;20518;-88
2023/08/28 05:10:16;;;;;;;11.38;3.20;;;11.50;99.90;;;;;;5079838;28;20024;-88
2023/08/28 05:12:44;;;;;;;5.72;3.88;;;11.50;99.90;;;;;;5067876;28;20162;-87
2023/08/28 05:15:10;;;;;;;5.40;3.50;;;11.60;99.90;;;;;;5063984;28;20028;-88
2023/08/28 05:17:35;;;;;;;7.85;3.72;;;11.70;99.90;;;;;;5069317;28;20032;-88
2023/08/28 05:20:01;;;;;;;6.28;3.20;;;11.70;99.90;;;;;;5081009;28;20486;-87
2023/08/28 05:22:27;;;;;;;5.30;3.30;;;11.70;99.90;;;;;;5077553;28;20111;-88
2023/08/28 05:24:52;;;;;;;6.38;3.92;;;11.70;99.90;;;;;;5068178;28;20039;-87
2023/08/28 05:27:18;;;;;;;6.03;3.72;;;11.80;99.90;;;;;;5079368;28;20024;-87
2023/08/28 05:29:46;;;;;;;7.28;4.03;;;11.80;99.90;;;;;;5070275;28;20122;-88
2023/08/28 05:32:11;;;;;;;7.45;3.85;;;11.80;99.90;;;;;;5061547;28;20082;-88
2023/08/28 05:34:37;;;;;;;6.15;4.40;;;11.80;99.90;;;;;;5073166;28;20019;-87
2023/08/28 05:37:03;;;;;;;4.93;4.43;;;11.80;99.90;;;;;;5077925;28;20028;-87
2023/08/28 05:39:29;;;;;;;8.38;5.20;;;11.90;99.90;;;;;;5074564;28;20463;-88
2023/08/28 05:41:55;;;;;;;9.68;5.40;;;11.90;99.90;;;;;;5060979;28;20035;-88
2023/08/28 05:44:20;;;;;;;9.93;4.95;;;12.00;99.90;;;;;;5075768;28;20020;-88
2023/08/28 05:46:46;;;;;;;6.82;5.53;;;12.00;99.90;;;;;;5092076;28;20110;-87
2023/08/28 05:49:12;;;;;;;12.07;5.75;;;11.90;99.90;;;;;;5075888;28;20047;-87
2023/08/28 05:51:38;;;;;;;6.88;5.38;;;12.00;99.90;;;;;;5074062;28;20027;-88
2023/08/28 05:54:04;;;;;;;6.30;5.30;;;12.00;99.90;;;;;;5075516;28;20016;-88
2023/08/28 05:56:30;;;;;;;6.72;5.40;;;12.10;99.90;;;;;;5076143;28;20481;-88
2023/08/28 05:58:56;;;;;;;9.35;5.53;;;12.20;99.90;;;;;;5058067;28;20534;-88
2023/08/28 06:01:22;;;;;;;7.88;5.57;;;12.20;99.90;;;;;;5071825;28;20028;-86
2023/08/28 06:03:48;;;;;;;8.38;5.43;;;12.20;99.90;;;;;;5073646;28;20020;-88
2023/08/28 06:06:13;;;;;;;6.00;5.30;;;12.30;99.90;;;;;;5081619;28;20032;-87
2023/08/28 06:08:39;;;;;;;6.18;5.45;;;12.30;99.90;;;;;;5075424;28;20108;-88
2023/08/28 06:11:05;;;;;;;8.60;5.57;;;12.30;99.90;;;;;;5059647;28;20077;-88
2023/08/28 06:13:31;;;;;;;8.73;5.55;;;12.40;99.90;;;;;;5075475;28;20055;-87
2023/08/28 06:15:56;;;;;;;6.05;4.35;;;12.40;99.90;;;;;;5075447;28;20024;-87
2023/08/28 06:18:22;;;;;;;10.02;5.10;;;12.40;99.90;;;;;;5076994;28;20055;-88
2023/08/28 06:20:48;;;;;;;7.60;5.45;;;12.50;99.90;;;;;;5075485;28;20394;-88
2023/08/28 06:23:16;;;;;;;13.77;6.03;;;12.50;99.90;;;;;;5058776;28;20036;-89
2023/08/28 06:25:42;;;;;;;8.57;6.05;;;12.50;99.90;;;;;;5077061;28;20134;-88
2023/08/28 06:28:08;;;;;;;7.82;4.93;;;12.60;99.90;;;;;;5061835;28;20789;-88
2023/08/28 06:30:33;;;;;;;9.05;5.03;;;12.60;99.90;;;;;;5076066;28;20052;-88
2023/08/28 06:33:02;;;;;;;9.55;4.95;;;12.60;99.90;;;;;;5074603;28;20027;-88
2023/08/28 06:35:28;;;;;;;8.40;5.30;;;12.60;99.90;;;;;;5060315;28;20043;-88
2023/08/28 06:37:54;;;;;;;6.82;5.07;;;12.60;99.90;;;;;;5075155;28;20039;-86
2023/08/28 06:40:20;;;;;;;10.10;5.50;;;12.60;99.90;;;;;;5060209;28;20024;-88
2023/08/28 06:42:46;;;;;;;8.13;4.80;;;12.60;99.90;;;;;;5075823;28;20036;-87
2023/08/28 06:45:12;;;;;;;13.02;6.43;;;12.60;99.90;;;;;;5075818;28;20028;-88
2023/08/28 06:47:38;;;;;;;7.70;5.00;;;12.70;99.90;;;;;;5067124;28;20150;-88
2023/08/28 06:50:07;;;;;;;7.18;6.00;;;12.70;99.90;;;;;;5076234;28;20431;-88
2023/08/28 06:52:33;;;;;;;9.35;5.78;;;12.70;99.90;;;;;;5056556;28;20106;-88
2023/08/28 06:54:58;;;;;;;6.18;5.13;;;12.80;99.90;;;;;;5056167;28;20021;-89
2023/08/28 06:57:24;;;;;;;7.07;5.35;;;12.80;99.90;;;;;;5074771;28;20075;-89
2023/08/28 06:59:50;;;;;;;8.95;6.20;;;12.80;99.90;;;;;;5076653;28;20037;-88
2023/08/28 07:02:15;;;;;;;7.07;5.60;;;12.70;99.90;;;;;;5054857;28;20131;-89
2023/08/28 07:04:41;;;;;;;11.38;6.18;;;12.80;99.90;;;;;;5059137;28;20090;-88
2023/08/28 07:07:07;;;;;;;13.00;7.32;;;12.70;99.90;;;;;;5065316;28;20025;-88
2023/08/28 07:09:33;;;;;;;12.50;7.90;;;12.70;99.90;;;;;;5059531;28;20027;-88
2023/08/28 07:11:58;;;;;;;12.27;7.78;;;12.80;99.90;;;;;;5103957;28;20038;-88
2023/08/28 07:14:25;;;;;;;9.00;6.82;;;12.80;99.90;;;;;;5065270;28;20463;-88
2023/08/28 07:16:50;;;;;;;11.23;7.07;;;12.80;99.90;;;;;;5108376;28;20035;-88
2023/08/28 07:19:16;;;;;;;9.82;7.20;;;12.90;99.90;;;;;;5068542;28;20730;-87
2023/08/28 07:21:42;;;;;;;13.77;6.97;;;12.90;99.90;;;;;;5082339;28;20023;-87
2023/08/28 07:24:08;;;;;;;10.52;7.18;;;12.90;99.90;;;;;;5086599;28;20023;-87
2023/08/28 07:26:33;;;;;;;12.43;7.47;;;13.00;99.90;;;;;;5083133;28;20022;-87
2023/08/28 07:28:59;;;;;;;11.05;7.65;;;13.00;99.90;;;;;;5064031;28;20035;-87
2023/08/28 07:31:25;;;;;;;9.80;7.93;;;13.00;99.90;;;;;;5068754;28;20466;-87
2023/08/28 07:33:50;;;;;;;15.95;7.78;;;13.10;99.90;;;;;;5066603;28;20028;-88
2023/08/28 07:36:23;;;;;;;9.15;7.03;;;13.10;99.90;;;;;;5085116;28;20485;-87
2023/08/28 07:38:49;;;;;;;9.32;6.43;;;13.10;99.90;;;;;;5067643;28;20039;-87
2023/08/28 07:41:16;;;;;;;9.63;6.50;;;13.10;99.90;;;;;;5067020;28;20016;-87
2023/08/28 07:43:44;;;;;;;7.68;5.50;;;13.30;99.90;;;;;;5065035;28;20036;-88
2023/08/28 07:46:09;;;;;;;13.75;6.22;;;13.40;99.90;;;;;;5069608;28;20482;-87
2023/08/28 07:48:35;;;;;;;6.72;5.57;;;13.60;99.90;;;;;;5082878;28;20113;-87
2023/08/28 07:51:01;;;;;;;6.38;5.55;;;13.70;99.90;;;;;;5064372;28;20034;-87
2023/08/28 07:53:26;;;;;;;9.35;6.57;;;13.80;99.90;;;;;;5071641;28;20493;-87
2023/08/28 07:55:52;;;;;;;7.47;6.65;;;13.90;99.90;;;;;;5067014;28;20047;-87
2023/08/28 07:58:18;;;;;;;11.82;7.53;;;13.90;99.90;;;;;;5067329;28;20028;-87
2023/08/28 08:00:44;;;;;;;10.80;5.75;;;13.90;99.90;;;;;;5064506;28;20115;-87
2023/08/28 08:03:10;;;;;;;6.47;4.97;;;13.90;99.90;;;;;;5070188;28;20073;-87
2023/08/28 08:05:36;;;;;;;6.07;4.93;;;13.70;99.90;;;;;;5066153;28;20438;-87
2023/08/28 08:08:01;;;;;;;9.38;4.40;;;13.90;99.90;;;;;;5063540;28;20051;-87
2023/08/28 08:10:27;;;;;;;9.05;5.18;;;14.00;99.90;;;;;;5067320;28;20024;-86
2023/08/28 08:12:53;;;;;;;6.20;4.15;;;13.90;99.90;;;;;;5082802;28;20016;-88
2023/08/28 08:15:19;;;;;;;7.22;5.03;;;14.00;99.90;;;;;;5068041;28;20039;-87
2023/08/28 08:17:44;;;;;;;5.57;4.75;;;13.90;99.90;;;;;;5067099;28;20027;-87
2023/08/28 08:20:11;;;;;;;7.85;4.50;;;13.80;99.90;;;;;;5062595;28;20032;-86
2023/08/28 08:22:38;;;;;;;7.03;4.97;;;13.80;99.90;;;;;;5068711;28;20486;-88
2023/08/28 08:25:05;;;;;;;6.55;4.15;;;13.90;99.90;;;;;;5064767;28;20041;-87
2023/08/28 08:27:30;;;;;;;8.13;4.20;;;14.00;99.90;;;;;;5066236;28;20044;-87
2023/08/28 08:29:56;;;;;;;4.88;3.65;;;14.10;99.90;;;;;;5070654;28;20031;-88
2023/08/28 08:32:22;;;;;;;8.38;4.68;;;14.20;99.90;;;;;;5079951;28;20035;-88
2023/08/28 08:34:47;;;;;;;7.18;4.85;;;14.10;99.90;;;;;;5065217;28;20032;-88
2023/08/28 08:37:14;;;;;;;7.13;4.93;;;14.30;99.90;;;;;;5068104;28;20097;-87
2023/08/28 08:39:42;;;;;;;10.02;4.65;;;14.50;99.90;;;;;;5064553;28;20059;-87
2023/08/28 08:42:08;;;;;;;5.70;4.78;;;14.60;99.90;;;;;;5105003;28;20019;-88
2023/08/28 08:44:34;;;;;;;8.10;4.63;;;14.70;99.90;;;;;;5082737;28;20062;-87
2023/08/28 08:47:03;;;;;;;6.40;3.78;;;14.60;99.90;;;;;;5073074;28;20466;-87
2023/08/28 08:49:31;;;;;;;8.45;4.55;;;14.40;99.90;;;;;;5066667;28;20506;-87
2023/08/28 08:52:01;;;;;;;4.95;3.17;;;14.40;99.90;;;;;;5083046;28;20098;-87
2023/08/28 08:54:31;;;;;;;4.18;3.05;;;14.40;99.90;;;;;;5076740;28;20036;-88
2023/08/28 08:57:00;;;;;;;3.80;3.00;;;14.40;99.90;;;;;;5069585;28;20050;-87
2023/08/28 08:59:26;;;;;;;4.00;3.08;;;14.40;99.90;;;;;;5066562;28;20028;-87
2023/08/28 09:01:53;;;;;;;4.20;2.70;;;14.50;99.90;;;;;;5071203;28;20059;-87
2023/08/28 09:04:19;;;;;;;5.55;2.60;;;14.50;99.90;;;;;;5064650;28;20030;-87
2023/08/28 09:06:48;;;;;;;3.85;3.15;;;14.60;99.90;;;;;;5066063;28;20028;-88
2023/08/28 09:09:15;;;;;;;4.38;2.72;;;14.90;99.90;;;;;;5081360;28;20529;-88
2023/08/28 09:11:45;;;;;;;4.25;2.80;;;15.20;99.90;;;;;;5068347;28;20032;-86
2023/08/28 09:14:11;;;;;;;5.18;3.00;;;15.40;99.90;;;;;;5082380;28;20031;-88
2023/08/28 09:16:36;;;;;;;3.00;2.70;;;15.40;99.90;;;;;;5063363;28;20091;-88
2023/08/28 09:19:02;;;;;;;3.47;2.42;;;15.60;99.90;;;;;;5085384;28;20501;-87
2023/08/28 09:21:35;;;;;;;6.35;2.70;;;15.70;99.90;;;;;;5067529;28;20094;-88
2023/08/28 09:24:01;;;;;;;5.22;2.72;;;15.80;99.90;;;;;;5061863;28;20026;-87
2023/08/28 09:26:26;;;;;;;4.88;2.25;;;16.10;99.90;;;;;;5064987;28;20111;-86
2023/08/28 09:29:00;;;;;;;3.00;1.98;;;16.20;99.90;;;;;;5080209;28;20066;-87
2023/08/28 09:31:34;;;;;;;2.50;2.10;;;16.30;99.90;;;;;;5066119;28;20141;-87
2023/08/28 09:34:02;;;;;;;4.28;2.20;;;16.60;99.90;;;;;;5066490;28;20028;-87
2023/08/28 09:36:28;;;;;;;3.53;2.40;;;16.50;99.90;;;;;;5075937;28;20382;-87
2023/08/28 09:39:06;;;;;;;4.80;2.33;;;16.50;99.90;;;;;;5067454;28;20024;-86
2023/08/28 09:41:49;;;;;;;5.35;2.25;;;16.20;99.90;;;;;;5052738;28;20019;-87
2023/08/28 09:44:21;;;;;;;2.83;1.92;;;16.30;99.90;;;;;;5071501;28;20031;-87
2023/08/28 09:46:48;;;;;;;45.25;22.35;;;16.50;99.90;;;;;;5067725;28;20422;-87
2023/08/28 09:49:20;;;;;;;4.97;3.45;;;16.90;99.90;;;;;;5067939;28;20078;-88
2023/08/28 09:51:50;;;;;;;5.47;2.80;;;16.90;99.90;;;;;;5080993;28;20024;-87
2023/08/28 09:54:16;;;;;;;4.13;2.50;;;17.20;99.90;;;;;;5080723;28;20028;-88
2023/08/28 09:56:43;;;;;;;4.32;2.33;;;17.40;99.90;;;;;;5076667;28;20522;-88
2023/08/28 09:59:10;;;;;;;4.45;2.90;;;17.60;99.90;;;;;;5054927;28;20029;-87
2023/08/28 10:01:37;;;;;;;6.68;3.55;;;17.70;99.90;;;;;;5058568;28;20933;-87
2023/08/28 10:04:07;;;;;;;7.00;2.08;;;17.80;99.90;;;;;;5066606;28;20027;-88
2023/08/28 10:06:49;;;;;;;6.72;2.45;;;18.10;99.90;;;;;;5075902;28;20081;-88
2023/08/28 10:09:18;;;;;;;;;;;18.20;99.90;;;;;;5084061;28;20024;-88
2023/08/28 10:11:45;;;;;;;4.50;3.45;;;18.10;99.90;;;;;;5078119;28;20422;-87
2023/08/28 10:14:12;;;;;;;2.30;1.75;;;18.10;99.90;;;;;;5063577;28;20033;-86
2023/08/28 10:16:54;;;;;;;2.35;1.40;;;17.90;99.90;;;;;;5077658;28;20035;-87
2023/08/28 10:19:26;;;;;;;2.15;1.70;;;18.30;99.90;;;;;;5055952;28;20028;-89
2023/08/28 10:21:53;;;;;;;6.00;1.55;;;19.00;99.90;;;;;;5079681;28;20055;-87
2023/08/28 10:24:20;;;;;;;3.42;1.73;;;19.40;99.90;;;;;;5059163;28;20069;-87
2023/08/28 10:26:47;;;;;;;2.65;1.38;;;19.90;99.90;;;;;;5058237;28;20028;-88
2023/08/28 10:29:17;;;;;;;2.00;1.13;;;19.80;99.90;;;;;;5094291;28;20026;-88
2023/08/28 10:31:44;;;;;;;2.90;1.08;;;20.40;99.90;;;;;;5081170;28;20052;-88
2023/08/28 10:34:11;;;;;;;1.63;1.15;;;20.30;99.90;;;;;;5063017;28;20050;-86
2023/08/28 10:36:38;;;;;;;6.18;3.83;;;20.30;99.90;;;;;;5076910;28;20043;-87
2023/08/28 10:39:04;;;;;;;2.83;1.20;;;20.20;99.90;;;;;;5065720;28;20038;-87
2023/08/28 10:41:32;;;;;;;5.60;2.72;;;20.30;99.90;;;;;;5059017;28;20043;-88
2023/08/28 10:43:59;;;;;;;2.95;1.48;;;20.30;99.90;;;;;;5084069;28;20077;-87
2023/08/28 10:46:28;;;;;;;3.15;1.88;;;20.20;99.90;;;;;;5078457;28;20445;-87
2023/08/28 10:49:04;;;;;;;5.57;2.95;;;20.30;99.90;;;;;;5084121;28;20418;-89
2023/08/28 10:51:36;;;;;;;6.70;4.93;;;20.50;99.90;;;;;;5066710;28;20035;-89
2023/08/28 10:54:07;;;;;;;9.38;7.75;;;20.80;99.90;;;;;;5085033;28;20026;-90
2023/08/28 10:56:34;;;;;;;4.32;2.42;;;20.60;99.90;;;;;;5083464;28;20074;-89
2023/08/28 10:59:19;;;;;;;3.53;2.13;;;20.30;99.90;;;;;;5064606;28;20051;-89
2023/08/28 11:01:57;;;;;;;2.67;1.63;;;20.40;99.90;;;;;;5068952;28;20051;-90
2023/08/28 11:04:35;;;;;;;4.72;2.17;;;20.80;99.90;;;;;;5066341;28;20020;-89
2023/08/28 11:07:02;;;;;;;3.90;1.13;;;21.10;99.90;;;;;;5069173;28;20031;-87
2023/08/28 11:09:28;;;;;;;1.73;1.20;;;20.80;99.90;;;;;;5067533;28;20731;-89
2023/08/28 11:12:00;;;;;;;4.28;2.33;;;20.20;99.90;;;;;;5065978;28;20024;-88
2023/08/28 11:14:30;;;;;;;4.63;1.50;;;19.90;99.90;;;;;;5070748;28;20026;-88
2023/08/28 11:17:04;;;;;;;4.47;1.75;;;19.80;99.90;;;;;;5054711;28;20040;-88
2023/08/28 11:19:30;;;;;;;1.48;1.30;;;19.90;99.90;;;;;;5077113;28;20032;-88
2023/08/28 11:22:00;;;;;;;2.35;1.67;;;19.80;99.90;;;;;;5066382;28;20042;-88
2023/08/28 11:24:26;;;;;;;3.55;1.40;;;19.60;99.90;;;;;;5083722;28;20058;-87
2023/08/28 11:26:52;;;;;;;2.65;1.23;;;19.30;99.90;;;;;;5062833;28;20024;-88
2023/08/28 11:29:28;;;;;;;4.47;1.80;;;18.80;99.90;;;;;;5059942;28;20459;-87
2023/08/28 11:31:53;;;;;;;4.13;1.50;;;19.10;99.90;;;;;;5081259;28;20375;-86
2023/08/28 11:34:53;;;;;;;3.03;1.60;;;19.00;99.90;;;;;;5060350;28;20127;-88
2023/08/28 11:37:40;;;;;;;5.13;1.42;;;18.80;99.90;;;;;;5076419;28;20697;-89
2023/08/28 11:40:08;;;;;;;4.78;1.60;;;18.60;99.90;;;;;;5085133;28;20028;-88
2023/08/28 11:42:37;;;;;;;4.47;1.55;;;18.70;99.90;;;;;;5085412;28;20034;-88
2023/08/28 11:45:05;;;;;;;2.20;1.40;;;18.80;99.90;;;;;;5085775;28;20549;-88
2023/08/28 11:47:32;;;;;;;4.05;1.85;;;18.60;99.90;;;;;;5068127;28;20032;-89
2023/08/28 11:49:59;;;;;;;9.75;4.80;;;18.50;99.90;;;;;;5086526;28;20168;-89
2023/08/28 11:52:25;;;;;;;5.05;2.60;;;18.60;99.90;;;;;;5092791;28;20040;-88
2023/08/28 11:54:57;;;;;;;2.92;1.42;;;18.90;99.90;;;;;;5077051;28;20449;-88
2023/08/28 11:57:25;;;;;;;1.88;1.60;;;19.00;99.90;;;;;;5067805;28;20040;-88
2023/08/28 11:59:51;;;;;;;5.88;1.80;;;18.70;99.90;;;;;;5073013;28;20042;-88
2023/08/28 12:02:19;;;;;;;3.22;1.50;;;18.80;99.90;;;;;;5071538;28;20043;-88
2023/08/28 12:04:50;;;;;;;6.65;2.83;;;19.50;99.90;;;;;;5098771;28;20024;-87
2023/08/28 12:07:27;;;;;;;1.45;1.08;;;19.60;99.90;;;;;;5065190;28;20027;-89
2023/08/28 12:09:54;;;;;;;4.32;1.50;;;19.50;99.90;;;;;;5068068;28;20024;-89
2023/08/28 12:12:21;;;;;;;2.72;0.88;;;19.30;99.90;;;;;;5065996;28;20024;-88
2023/08/28 12:14:48;;;;;;;4.15;1.10;;;19.10;99.90;;;;;;5066122;28;20023;-88
2023/08/28 12:17:18;;;;;;;3.88;1.20;;;19.30;99.90;;;;;;5064586;28;20050;-89
2023/08/28 12:19:44;;;;;;;4.25;1.30;;;19.50;99.90;;;;;;5067271;28;20040;-89
2023/08/28 12:22:11;;;;;;;5.20;1.20;;;19.10;99.90;;;;;;5065632;28;20024;-87
2023/08/28 12:24:45;;;;;;;1.20;0.82;;;19.00;99.90;;;;;;5062899;28;20493;-87
2023/08/28 12:27:13;;;;;;;1.80;0.85;;;19.30;99.90;;;;;;5066443;28;20115;-88
2023/08/28 12:29:41;;;;;;;1.38;0.82;;;19.40;99.90;;;;;;5082518;28;20032;-88
2023/08/28 12:32:16;;;;;;;2.67;0.90;;;19.30;99.90;;;;;;5068883;28;20109;-89
2023/08/28 12:34:43;;;;;;;3.45;0.65;;;19.30;99.90;;;;;;5082320;28;20027;-87
2023/08/28 12:37:11;;;;;;;1.25;0.90;;;19.10;99.90;;;;;;5078072;28;20119;-88
2023/08/28 12:39:45;;;;;;;1.45;0.95;;;18.70;99.90;;;;;;5069204;28;20038;-88
2023/08/28 12:42:13;;;;;;;1.42;0.85;;;18.90;99.90;;;;;;5081943;28;20066;-88
2023/08/28 12:44:42;;;;;;;0.90;0.90;;;18.90;99.90;;;;;;5069371;28;20027;-88
2023/08/28 12:47:08;;;;;;;2.20;0.90;;;19.10;99.90;;;;;;5066934;28;20051;-88